Terminal Aerodrome Forecast
Issued by NWS Twin Cities, MN

Home | Current Version | Previous Version | Text Only | Print | Product List | Glossary On
Versions: 1 2 3 4 5 6 7 8 9 10 11 12 13 14 15 16 17 18 19
000
FTUS43 KMPX 181700 CCA
TAFSTC
TAF COR
KSTC 181727Z 1818/1918 16004KT 6SM -SN BKN020 OVC030
      TEMPO 1818/1819 2SM -SN
     FM182100 16004KT P6SM SCT020 BKN080
     FM190000 17006KT P6SM BKN050
     FM191200 17007KT P6SM BKN015=

USA.gov is the U.S. government's official web portal to all federal, state and local government web resources and services.